Time;durP1;ratioP1;P1;durP2;ratioP2;P2;SDS_P1;SDS_P2;PMS_P1;PMS_P2;Temp;Humidity;BMP_temperature;BMP_pressure;BME280_temperature;BME280_humidity;BME280_pressure;Samples;Min_cycle;Max_cycle;Signal;HPM_P1;HPM_P2
2023/09/14 00:01:07;;;;;;;;;;;;;;;20.10;100.00;99800.44;5013366;28;19925;-75
2023/09/14 00:03:32;;;;;;;;;;;;;;;20.09;100.00;99806.84;5013502;28;20015;-75
2023/09/14 00:05:58;;;;;;;;;;;;;;;20.06;100.00;99804.53;4995993;28;20016;-75
2023/09/14 00:08:23;;;;;;;;;;;;;;;20.06;100.00;99796.50;5013723;28;20262;-75
2023/09/14 00:10:55;;;;;;;;;;;;;;;20.02;100.00;99799.59;5013722;28;19921;-75
2023/09/14 00:13:21;;;;;;;;;;;;;;;19.95;100.00;99798.72;5013580;28;19928;-76
2023/09/14 00:15:46;;;;;;;;;;;;;;;19.98;100.00;99792.97;5013354;28;19925;-76
2023/09/14 00:18:11;;;;;;;;;;;;;;;19.91;100.00;99792.09;5013575;28;20358;-75
2023/09/14 00:20:37;;;;;;;;;;;;;;;19.95;100.00;99787.19;4995859;28;20350;-77
2023/09/14 00:23:03;;;;;;;;;;;;;;;20.02;100.00;99793.41;5013152;28;20318;-76
2023/09/14 00:25:28;;;;;;;;;;;;;;;20.03;100.00;99792.34;5013673;28;19976;-76
2023/09/14 00:27:54;;;;;;;;;;;;;;;19.93;100.00;99790.03;5012958;28;19925;-75
2023/09/14 00:30:21;;;;;;;;;;;;;;;19.90;100.00;99795.81;5013354;28;19921;-76
2023/09/14 00:32:49;;;;;;;;;;;;;;;19.82;100.00;99793.28;5013098;28;19925;-77
2023/09/14 00:35:15;;;;;;;;;;;;;;;19.85;100.00;99787.50;5012934;28;20060;-75
2023/09/14 00:37:41;;;;;;;;;;;;;;;19.81;100.00;99793.47;5013486;28;20426;-76
2023/09/14 00:40:07;;;;;;;;;;;;;;;19.75;100.00;99792.41;4995404;28;20004;-75
2023/09/14 00:42:38;;;;;;;;;;;;;;;19.75;100.00;99789.72;5013150;28;19929;-75
2023/09/14 00:45:12;;;;;;;;;;;;;;;19.67;100.00;99787.22;5013063;28;20374;-75
2023/09/14 00:47:38;;;;;;;;;;;;;;;19.72;100.00;99792.81;5012704;28;20420;-75
2023/09/14 00:50:04;;;;;;;;;;;;;;;19.75;100.00;99788.91;4994808;28;20393;-75
2023/09/14 00:52:31;;;;;;;;;;;;;;;19.76;100.00;99783.34;5012796;28;19921;-76
2023/09/14 00:54:56;;;;;;;;;;;;;;;19.71;100.00;99785.81;5012652;28;19975;-76
2023/09/14 00:57:22;;;;;;;;;;;;;;;19.70;100.00;99791.34;4995455;28;20329;-76
2023/09/14 00:59:47;;;;;;;;;;;;;;;19.52;100.00;99781.94;5009769;28;19929;-75
2023/09/14 01:02:13;;;;;;;;;;;;;;;19.29;100.00;99785.84;5010382;28;19971;-76
2023/09/14 01:04:39;;;;;;;;;;;;;;;19.15;100.00;99791.06;5011677;28;20290;-74
2023/09/14 01:07:05;;;;;;;;;;;;;;;19.06;100.00;99786.06;5012703;28;19922;-76
2023/09/14 01:09:30;;;;;;;;;;;;;;;19.10;100.00;99782.81;5013073;28;19921;-75
2023/09/14 01:11:55;;;;;;;;;;;;;;;19.12;100.00;99786.13;5012956;28;19922;-75
2023/09/14 01:14:28;;;;;;;;;;;;;;;19.10;100.00;99785.47;5010963;28;19992;-75
2023/09/14 01:16:58;;;;;;;;;;;;;;;19.05;100.00;99779.88;4991519;28;19972;-76
2023/09/14 01:19:33;;;;;;;;;;;;;;;19.12;100.00;99779.94;5017550;28;19972;-73
2023/09/14 01:22:07;;;;;;;;;;;;;;;19.03;100.00;99779.22;5009347;28;19929;-74
2023/09/14 01:24:48;;;;;;;;;;;;;;;19.06;100.00;99770.84;4995306;28;19921;-74
2023/09/14 01:27:14;;;;;;;;;;;;;;;19.12;100.00;99775.44;4995004;28;19957;-74
2023/09/14 01:29:40;;;;;;;;;;;;;;;19.12;100.00;99774.59;5012255;28;19928;-74
2023/09/14 01:32:06;;;;;;;;;;;;;;;19.11;100.00;99773.78;5012209;28;19921;-73
2023/09/14 01:34:32;;;;;;;;;;;;;;;19.05;100.00;99774.53;4994861;28;19921;-74
2023/09/14 01:36:58;;;;;;;;;;;;;;;19.01;100.00;99773.28;4993772;28;19968;-74
2023/09/14 01:39:25;;;;;;;;;;;;;;;18.96;100.00;99770.34;4994642;28;20429;-74
2023/09/14 01:41:54;;;;;;;;;;;;;;;18.95;100.00;99771.38;4994029;28;19921;-74
2023/09/14 01:44:27;;;;;;;;;;;;;;;18.99;100.00;99764.59;4990588;28;20401;-74
2023/09/14 01:46:53;;;;;;;;;;;;;;;19.00;100.00;99771.63;4991504;28;19921;-75
2023/09/14 01:49:18;;;;;;;;;;;;;;;18.89;100.00;99771.28;5011899;28;19975;-73
2023/09/14 01:51:43;;;;;;;;;;;;;;;18.91;100.00;99775.41;4993746;28;20301;-73
2023/09/14 01:54:09;;;;;;;;;;;;;;;18.96;100.00;99770.34;4994019;28;19987;-74
2023/09/14 01:56:34;;;;;;;;;;;;;;;18.93;100.00;99769.88;4994312;28;20369;-73
2023/09/14 01:59:00;;;;;;;;;;;;;;;18.95;100.00;99774.03;4993758;28;19922;-75
2023/09/14 02:01:25;;;;;;;;;;;;;;;18.98;100.00;99770.97;4977988;28;19997;-75
2023/09/14 02:03:51;;;;;;;;;;;;;;;19.01;100.00;99773.28;4993836;28;20035;-75
2023/09/14 02:06:16;;;;;;;;;;;;;;;18.97;100.00;99768.47;5011382;28;19965;-74
2023/09/14 02:08:41;;;;;;;;;;;;;;;19.01;100.00;99773.28;4993965;28;19952;-75
2023/09/14 02:11:06;;;;;;;;;;;;;;;19.00;100.00;99776.13;4993788;28;19984;-74
2023/09/14 02:13:34;;;;;;;;;;;;;;;18.98;100.00;99776.31;5011455;28;19976;-75
2023/09/14 02:16:00;;;;;;;;;;;;;;;19.06;100.00;99781.53;5011304;28;19918;-75
2023/09/14 02:18:25;;;;;;;;;;;;;;;19.05;100.00;99779.88;5011825;28;19921;-74
2023/09/14 02:20:50;;;;;;;;;;;;;;;19.08;100.00;99774.16;5010826;28;19979;-74
2023/09/14 02:23:17;;;;;;;;;;;;;;;18.98;100.00;99779.00;5010966;28;20343;-73
2023/09/14 02:25:43;;;;;;;;;;;;;;;18.91;100.00;99767.41;5008878;28;19921;-73
2023/09/14 02:28:08;;;;;;;;;;;;;;;18.98;100.00;99773.63;4975556;28;19973;-74
2023/09/14 02:30:37;;;;;;;;;;;;;;;18.99;100.00;99775.31;4993604;28;19929;-74
2023/09/14 02:33:02;;;;;;;;;;;;;;;19.02;100.00;99769.59;5011005;28;19995;-74
2023/09/14 02:35:28;;;;;;;;;;;;;;;19.06;100.00;99765.50;5011304;28;19921;-75
2023/09/14 02:37:53;;;;;;;;;;;;;;;19.12;100.00;99764.72;4993126;28;20376;-76
2023/09/14 02:40:19;;;;;;;;;;;;;;;19.09;100.00;99765.09;4993227;28;19921;-75
2023/09/14 02:42:45;;;;;;;;;;;;;;;19.08;100.00;99768.81;4993371;28;19932;-76
2023/09/14 02:45:11;;;;;;;;;;;;;;;19.11;100.00;99771.09;4993253;28;19984;-75
2023/09/14 02:47:36;;;;;;;;;;;;;;;19.17;100.00;99762.31;5011144;28;19929;-75
2023/09/14 02:50:02;;;;;;;;;;;;;;;19.23;100.00;99764.19;5010803;28;19922;-75
2023/09/14 02:52:28;;;;;;;;;;;;;;;19.25;100.00;99763.19;4993121;28;20405;-75
2023/09/14 02:54:53;;;;;;;;;;;;;;;19.27;100.00;99761.13;4992811;28;20008;-75
2023/09/14 02:57:18;;;;;;;;;;;;;;;19.23;100.00;99758.84;5011017;28;20004;-74
2023/09/14 02:59:44;;;;;;;;;;;;;;;19.26;100.00;99763.00;5017829;28;19921;-75
2023/09/14 03:02:10;;;;;;;;;;;;;;;19.27;100.00;99750.41;4992691;28;19934;-75
2023/09/14 03:04:36;;;;;;;;;;;;;;;19.27;100.00;99761.13;4993434;28;19948;-75
2023/09/14 03:07:02;;;;;;;;;;;;;;;19.29;100.00;99765.28;4993209;28;20361;-76
2023/09/14 03:09:28;;;;;;;;;;;;;;;19.27;100.00;99766.47;5010632;28;19921;-74
2023/09/14 03:11:56;;;;;;;;;;;;;;;19.25;100.00;99763.19;4992840;28;19921;-75
2023/09/14 03:14:21;;;;;;;;;;;;;;;19.18;100.00;99766.63;5012602;28;19937;-75
2023/09/14 03:16:48;;;;;;;;;;;;;;;19.15;100.00;99764.31;4992698;28;19933;-75
2023/09/14 03:19:14;;;;;;;;;;;;;;;19.13;100.00;99766.38;4993064;28;19927;-75
2023/09/14 03:21:39;;;;;;;;;;;;;;;19.10;100.00;99761.41;4993348;28;20020;-74
2023/09/14 03:24:05;;;;;;;;;;;;;;;19.08;100.00;99757.28;4992052;28;19976;-75
2023/09/14 03:26:30;;;;;;;;;;;;;;;19.09;100.00;99762.44;4992903;28;19921;-74
2023/09/14 03:28:56;;;;;;;;;;;;;;;19.06;100.00;99754.81;4992436;28;19921;-75
2023/09/14 03:31:21;;;;;;;;;;;;;;;19.08;100.00;99758.13;4993182;28;19957;-76
2023/09/14 03:33:49;;;;;;;;;;;;;;;19.08;100.00;99758.13;5010201;28;19926;-75
2023/09/14 03:36:18;;;;;;;;;;;;;;;19.12;100.00;99754.03;5010630;28;19975;-74
2023/09/14 03:38:43;;;;;;;;;;;;;;;19.11;100.00;99752.38;5010332;28;19929;-74
2023/09/14 03:41:10;;;;;;;;;;;;;;;18.92;100.00;99753.00;4990114;28;19921;-74
2023/09/14 03:43:36;;;;;;;;;;;;;;;18.80;100.00;99758.03;5010532;28;19928;-75
2023/09/14 03:46:01;;;;;;;;;;;;;;;18.91;100.00;99756.69;4992212;28;19925;-74
2023/09/14 03:48:27;;;;;;;;;;;;;;;18.97;100.00;99761.28;4993129;28;19925;-74
2023/09/14 03:50:53;;;;;;;;;;;;;;;19.01;100.00;99751.88;5010383;28;19924;-74
2023/09/14 03:53:18;;;;;;;;;;;;;;;19.03;100.00;99760.50;5010340;28;19922;-75
2023/09/14 03:55:44;;;;;;;;;;;;;;;19.01;100.00;99762.56;5010175;28;19922;-74
2023/09/14 03:58:09;;;;;;;;;;;;;;;18.89;100.00;99761.44;4992256;28;19918;-74
2023/09/14 04:00:35;;;;;;;;;;;;;;;18.66;100.00;99763.47;4992654;28;20024;-75
2023/09/14 04:03:00;;;;;;;;;;;;;;;18.58;100.00;99776.94;4992320;28;19921;-74
2023/09/14 04:05:25;;;;;;;;;;;;;;;18.57;100.00;99764.56;5010716;28;19922;-74
2023/09/14 04:07:51;;;;;;;;;;;;;;;18.53;100.00;99755.25;5014485;28;19921;-75
2023/09/14 04:10:16;;;;;;;;;;;;;;;18.46;100.00;99762.38;5010606;28;20370;-74
2023/09/14 04:12:42;;;;;;;;;;;;;;;18.42;100.00;99762.75;4995773;28;19921;-74
2023/09/14 04:15:08;;;;;;;;;;;;;;;18.44;100.00;99756.41;5013205;28;20040;-75
2023/09/14 04:17:33;;;;;;;;;;;;;;;18.44;100.00;99769.75;4996004;28;19928;-74
2023/09/14 04:20:00;;;;;;;;;;;;;;;18.47;100.00;99769.38;4995867;28;20358;-75
2023/09/14 04:22:25;;;;;;;;;;;;;;;18.43;100.00;99768.94;4995606;28;19922;-74
2023/09/14 04:24:51;;;;;;;;;;;;;;;18.36;100.00;99768.84;4995840;28;20420;-73
2023/09/14 04:27:16;;;;;;;;;;;;;;;18.47;100.00;99769.38;4995924;28;19929;-73
2023/09/14 04:29:42;;;;;;;;;;;;;;;18.52;100.00;99767.78;4995585;28;20080;-73
2023/09/14 04:32:07;;;;;;;;;;;;;;;18.51;100.00;99767.97;5009765;28;19926;-73
2023/09/14 04:34:33;;;;;;;;;;;;;;;18.59;100.00;99767.91;5013449;28;19971;-74
2023/09/14 04:36:58;;;;;;;;;;;;;;;18.51;100.00;99771.47;4995535;28;19921;-75
2023/09/14 04:39:23;;;;;;;;;;;;;;;18.52;100.00;99766.97;4995893;28;19926;-75
2023/09/14 04:41:49;;;;;;;;;;;;;;;18.54;100.00;99764.94;5017277;28;20394;-75
2023/09/14 04:44:14;;;;;;;;;;;;;;;18.50;100.00;99768.97;4974531;28;20020;-74
2023/09/14 04:46:40;;;;;;;;;;;;;;;18.53;100.00;99768.63;5012862;28;19925;-74
2023/09/14 04:49:05;;;;;;;;;;;;;;;18.58;100.00;99771.59;5039024;23;19929;-75
2023/09/14 04:51:31;;;;;;;;;;;;;;;18.62;100.00;99778.19;5045911;28;20301;-77
2023/09/14 04:53:56;;;;;;;;;;;;;;;18.58;100.00;99779.59;5017127;28;19964;-80
2023/09/14 04:56:22;;;;;;;;;;;;;;;18.44;100.00;99780.44;5025400;28;19925;-76
2023/09/14 04:58:48;;;;;;;;;;;;;;;18.53;100.00;99779.31;5012926;28;20028;-77
2023/09/14 05:01:13;;;;;;;;;;;;;;;18.61;100.00;99784.59;5039133;28;19928;-76
2023/09/14 05:03:40;;;;;;;;;;;;;;;18.64;100.00;99787.69;5012138;28;19925;-78
2023/09/14 05:06:06;;;;;;;;;;;;;;;18.46;100.00;99786.41;5029953;28;19931;-78
2023/09/14 05:08:31;;;;;;;;;;;;;;;18.42;100.00;99789.47;5014073;28;19921;-82
2023/09/14 05:10:58;;;;;;;;;;;;;;;18.40;100.00;99802.19;5041346;28;20294;-80
2023/09/14 05:13:24;;;;;;;;;;;;;;;18.50;100.00;99801.03;5015541;28;19964;-79
2023/09/14 05:15:50;;;;;;;;;;;;;;;18.57;100.00;99802.00;5031166;28;20473;-78
2023/09/14 05:18:21;;;;;;;;;;;;;;;18.61;100.00;99797.94;5014845;28;19928;-79
2023/09/14 05:20:47;;;;;;;;;;;;;;;18.63;100.00;99803.91;5014300;28;19929;-80
2023/09/14 05:23:13;;;;;;;;;;;;;;;18.67;100.00;99799.88;5013530;28;19925;-77
2023/09/14 05:25:39;;;;;;;;;;;;;;;18.71;100.00;99810.00;5027077;28;20018;-80
2023/09/14 05:28:05;;;;;;;;;;;;;;;18.70;100.00;99807.50;5024518;28;20368;-79
2023/09/14 05:30:32;;;;;;;;;;;;;;;18.78;100.00;99807.38;5012020;28;19928;-78
2023/09/14 05:32:58;;;;;;;;;;;;;;;18.87;100.00;99808.91;5013574;28;20364;-77
2023/09/14 05:35:24;;;;;;;;;;;;;;;18.89;100.00;99812.22;5014450;28;19964;-79
2023/09/14 05:37:50;;;;;;;;;;;;;;;18.90;100.00;99813.91;5031988;28;20020;-78
2023/09/14 05:40:17;;;;;;;;;;;;;;;18.86;100.00;99812.59;5013683;28;20389;-80
2023/09/14 05:42:42;;;;;;;;;;;;;;;18.78;100.00;99810.91;5013322;28;20398;-80
2023/09/14 05:45:09;;;;;;;;;;;;;;;18.64;100.00;99817.09;5013116;28;19925;-81
2023/09/14 05:47:35;;;;;;;;;;;;;;;18.55;100.00;99830.78;5013677;28;19939;-80
2023/09/14 05:50:03;;;;;;;;;;;;;;;18.48;100.00;99835.16;5013163;28;19928;-80
2023/09/14 05:52:30;;;;;;;;;;;;;;;18.48;100.00;99829.81;5031656;28;19928;-80
2023/09/14 05:54:55;;;;;;;;;;;;;;;18.45;100.00;99840.88;5031208;28;19952;-81
2023/09/14 05:57:21;;;;;;;;;;;;;;;18.53;100.00;99838.09;5013644;28;19949;-79
2023/09/14 05:59:46;;;;;;;;;;;;;;;18.41;100.00;99835.91;5031091;28;19929;-81
2023/09/14 06:02:12;;;;;;;;;;;;;;;18.53;100.00;99843.44;5012947;28;20054;-81
2023/09/14 06:04:37;;;;;;;;;;;;;;;18.60;100.00;99844.41;5030811;28;19948;-81
2023/09/14 06:07:03;;;;;;;;;;;;;;;18.59;100.00;99848.06;5013283;28;19921;-81
2023/09/14 06:09:29;;;;;;;;;;;;;;;18.64;100.00;99848.34;5030783;28;19922;-82
2023/09/14 06:11:55;;;;;;;;;;;;;;;18.76;100.00;99849.50;5031004;28;19925;-81
2023/09/14 06:14:21;;;;;;;;;;;;;;;18.80;100.00;99845.44;5031255;28;19951;-80
2023/09/14 06:16:46;;;;;;;;;;;;;;;18.79;100.00;99846.47;5029634;28;19963;-81
2023/09/14 06:19:12;;;;;;;;;;;;;;;18.85;100.00;99848.38;5028688;28;19989;-81
2023/09/14 06:21:37;;;;;;;;;;;;;;;18.94;100.00;99857.94;5030619;28;19921;-81
2023/09/14 06:24:03;;;;;;;;;;;;;;;18.96;100.00;99857.78;5029765;28;19983;-81
2023/09/14 06:26:28;;;;;;;;;;;;;;;18.93;100.00;99856.28;5028666;28;19928;-80
2023/09/14 06:28:55;;;;;;;;;;;;;;;18.95;100.00;99856.09;5030216;28;19944;-82
2023/09/14 06:31:22;;;;;;;;;;;;;;;18.87;100.00;99865.06;5030408;28;20342;-81
2023/09/14 06:33:49;;;;;;;;;;;;;;;18.90;100.00;99866.53;5032141;28;20410;-81
2023/09/14 06:36:16;;;;;;;;;;;;;;;18.98;100.00;99864.56;5030366;28;19928;-81
2023/09/14 06:38:42;;;;;;;;;;;;;;;19.07;100.00;99866.13;5026877;28;20382;-81
2023/09/14 06:41:07;;;;;;;;;;;;;;;18.99;100.00;99866.22;5030121;28;20006;-81
2023/09/14 06:43:33;;;;;;;;;;;;;;;19.03;100.00;99861.31;5030263;28;19948;-80
2023/09/14 06:45:59;;;;;;;;;;;;;;;19.05;100.00;99870.81;5030282;28;19925;-80
2023/09/14 06:48:24;;;;;;;;;;;;;;;19.09;100.00;99866.75;5029702;28;19927;-80
2023/09/14 06:50:49;;;;;;;;;;;;;;;19.13;100.00;99868.03;5030106;28;19921;-81
2023/09/14 06:53:15;;;;;;;;;;;;;;;19.22;100.00;99869.56;5029368;28;20003;-81
2023/09/14 06:55:40;;;;;;;;;;;;;;;19.29;100.00;99866.13;5030410;28;19967;-81
2023/09/14 06:58:06;;;;;;;;;;;;;;;19.42;100.00;99876.94;5029929;28;19931;-81
2023/09/14 07:00:32;;;;;;;;;;;;;;;19.52;100.00;99878.31;5014790;28;19925;-82
2023/09/14 07:02:58;;;;;;;;;;;;;;;19.60;100.00;99872.84;5029421;28;20385;-80
2023/09/14 07:05:24;;;;;;;;;;;;;;;19.62;100.00;99883.31;5030179;28;19974;-82
2023/09/14 07:07:49;;;;;;;;;;;;;;;19.66;100.00;99883.78;5029673;28;19928;-81
2023/09/14 07:10:14;;;;;;;;;;;;;;;19.60;100.00;99880.03;5029972;28;19921;-81
2023/09/14 07:12:40;;;;;;;;;;;;;;;19.59;100.00;99884.56;5029792;28;19925;-81
2023/09/14 07:15:06;;;;;;;;;;;;;;;19.66;100.00;99881.94;5029858;28;19925;-81
2023/09/14 07:17:31;;;;;;;;;;;;;;;19.52;100.00;99888.19;5029800;28;19929;-81
2023/09/14 07:19:57;;;;;;;;;;;;;;;19.44;100.00;99885.63;5030266;28;19921;-82
2023/09/14 07:22:22;;;;;;;;;;;;;;;19.57;100.00;99897.28;5027678;28;19932;-85
2023/09/14 07:24:48;;;;;;;;;;;;;;;19.66;100.00;99902.53;5029697;28;19957;-88
2023/09/14 07:27:14;;;;;;;;;;;;;;;19.73;100.00;99900.75;5031183;28;19921;-86
2023/09/14 07:29:39;;;;;;;;;;;;;;;19.66;100.00;99906.03;5030859;28;20381;-87
2023/09/14 07:32:05;;;;;;;;;;;;;;;19.69;100.00;99916.34;5030375;28;19921;-87
2023/09/14 07:34:30;;;;;;;;;;;;;;;19.72;100.00;99915.16;5013409;28;19925;-88
2023/09/14 07:36:55;;;;;;;;;;;;;;;19.77;100.00;99920.75;5030259;28;19921;-88
2023/09/14 07:39:21;;;;;;;;;;;;;;;19.86;100.00;99925.75;5027708;28;19932;-87
2023/09/14 07:41:47;;;;;;;;;;;;;;;19.92;100.00;99921.47;5031212;28;19929;-87
2023/09/14 07:44:12;;;;;;;;;;;;;;;19.97;100.00;99925.22;5032063;28;19929;-87
2023/09/14 07:46:39;;;;;;;;;;;;;;;20.03;100.00;99929.81;5016733;28;19921;-87
2023/09/14 07:49:05;;;;;;;;;;;;;;;20.16;100.00;99928.25;5016011;28;20346;-88
2023/09/14 07:51:30;;;;;;;;;;;;;;;20.24;100.00;99936.97;5039133;28;19925;-88
2023/09/14 07:53:56;;;;;;;;;;;;;;;20.34;100.00;99942.00;5033253;28;19921;-87
2023/09/14 07:56:22;;;;;;;;;;;;;;;20.21;100.00;99949.91;5033226;28;19920;-84
2023/09/14 07:58:47;;;;;;;;;;;;;;;20.25;100.00;99953.88;5033359;28;19929;-84
2023/09/14 08:01:12;;;;;;;;;;;;;;;20.15;100.00;99954.22;5033374;28;19925;-84
2023/09/14 08:03:38;;;;;;;;;;;;;;;20.17;100.00;99948.66;5033350;28;20006;-85
2023/09/14 08:06:04;;;;;;;;;;;;;;;20.20;100.00;99951.81;5033044;28;19947;-85
2023/09/14 08:08:32;;;;;;;;;;;;;;;20.30;100.00;99946.91;5032835;28;20336;-85
2023/09/14 08:10:58;;;;;;;;;;;;;;;20.40;100.00;99951.94;5014808;28;20279;-85
2023/09/14 08:13:23;;;;;;;;;;;;;;;20.48;100.00;99949.13;5034864;28;19917;-86
2023/09/14 08:15:49;;;;;;;;;;;;;;;20.54;100.00;99948.34;5039355;28;19988;-86
2023/09/14 08:18:15;;;;;;;;;;;;;;;20.61;100.00;99949.22;5036013;28;19976;-86
2023/09/14 08:20:44;;;;;;;;;;;;;;;20.70;100.00;99947.19;5037003;28;19921;-87
2023/09/14 08:23:13;;;;;;;;;;;;;;;20.73;100.00;99958.34;5044223;28;20081;-87
2023/09/14 08:25:43;;;;;;;;;;;;;;;20.78;100.00;99961.25;5050806;28;19928;-86
2023/09/14 08:28:19;;;;;;;;;;;;;;;20.80;100.00;99948.47;5026780;28;19921;-88
2023/09/14 08:30:44;;;;;;;;;;;;;;;20.83;100.00;99945.41;5045985;28;19921;-88
2023/09/14 08:33:13;;;;;;;;;;;;;;;20.91;100.00;99938.22;5044916;28;19931;-88
2023/09/14 08:35:38;;;;;;;;;;;;;;;20.98;100.00;99941.72;5038519;28;19988;-88
2023/09/14 08:38:05;;;;;;;;;;;;;;;21.06;100.00;99944.25;5035624;28;20038;-87
2023/09/14 08:40:31;;;;;;;;;;;;;;;21.05;100.00;99945.25;5036367;28;20139;-87
2023/09/14 08:42:57;;;;;;;;;;;;;;;21.11;100.00;99944.47;5032569;28;19947;-87
2023/09/14 08:45:30;;;;;;;;;;;;;;;21.10;100.00;99953.53;5031485;28;19960;-88
2023/09/14 08:47:56;;;;;;;;;;;;;;;21.13;100.00;99950.47;5029968;28;20301;-87
2023/09/14 08:50:25;;;;;;;;;;;;;;;21.21;100.00;99945.75;5033905;28;20325;-87
2023/09/14 08:52:51;;;;;;;;;;;;;;;21.29;100.00;99951.97;5037314;28;19933;-88
2023/09/14 08:55:18;;;;;;;;;;;;;;;21.37;100.00;99949.13;5038687;28;19928;-88
2023/09/14 08:57:44;;;;;;;;;;;;;;;21.39;100.00;99947.88;5034627;28;19983;-87
2023/09/14 09:00:17;;;;;;;;;;;;;;;21.49;100.00;99934.91;5029848;28;19949;-88
2023/09/14 09:02:46;;;;;;;;;;;;;;;21.56;100.00;99930.34;5037606;28;20308;-86
2023/09/14 09:05:12;;;;;;;;;;;;;;;21.60;100.00;99928.94;5036837;28;19936;-86
2023/09/14 09:07:41;;;;;;;;;;;;;;;21.65;100.00;99926.44;5036820;28;19924;-89
2023/09/14 09:10:27;;;;;;;;;;;;;;;21.70;100.00;99928.50;5035413;28;19987;-84
2023/09/14 09:12:59;;;;;;;;;;;;;;;21.81;100.00;99919.00;5033672;28;19925;-84
2023/09/14 09:15:28;;;;;;;;;;;;;;;21.88;100.00;99925.22;5030700;28;19932;-86
2023/09/14 09:18:07;;;;;;;;;;;;;;;21.97;100.00;99924.03;5029965;28;19921;-86
2023/09/14 09:20:33;;;;;;;;;;;;;;;21.95;100.00;99928.75;5031968;28;20361;-84
2023/09/14 09:23:00;;;;;;;;;;;;;;;21.96;100.00;99925.06;5014064;28;20440;-85
2023/09/14 09:25:26;;;;;;;;;;;;;;;21.99;100.00;99916.56;5013859;28;19929;-84
2023/09/14 09:28:02;;;;;;;;;;;;;;;22.08;100.00;99920.69;5033865;28;20445;-85
2023/09/14 09:30:33;;;;;;;;;;;;;;;22.17;100.00;99919.44;5029802;28;20003;-82
2023/09/14 09:32:59;;;;;;;;;;;;;;;22.23;100.00;99913.22;5028844;28;19925;-83
2023/09/14 09:35:26;;;;;;;;;;;;;;;22.29;100.00;99912.38;5032148;28;19921;-83
2023/09/14 09:37:52;;;;;;;;;;;;;;;22.36;100.00;99912.38;5032224;28;19932;-82
2023/09/14 09:40:21;;;;;;;;;;;;;;;22.41;100.00;99916.09;5031719;28;20056;-84
2023/09/14 09:42:47;;;;;;;;;;;;;;;22.45;100.00;99909.25;5031007;28;19928;-86
2023/09/14 09:45:13;;;;;;;;;;;;;;;22.49;100.00;99903.47;5032465;28;19960;-83
2023/09/14 09:47:39;;;;;;;;;;;;;;;22.56;100.00;99906.97;5033668;28;19963;-86
2023/09/14 09:50:06;;;;;;;;;;;;;;;22.63;100.00;99907.75;5034164;28;19921;-86
2023/09/14 09:52:34;;;;;;;;;;;;;;;22.68;100.00;99910.66;5033834;28;19917;-87
2023/09/14 09:54:59;;;;;;;;;;;;;;;22.72;100.00;99907.34;5032523;28;19943;-83
2023/09/14 09:57:31;;;;;;;;;;;;;;;22.78;100.00;99906.50;5033664;28;19921;-85
2023/09/14 09:59:57;;;;;;;;;;;;;;;22.84;100.00;99904.81;5028797;28;19917;-84
2023/09/14 10:02:32;;;;;;;;;;;;;;;22.85;100.00;99907.25;5029063;28;20012;-84
2023/09/14 10:04:58;;;;;;;;;;;;;;;22.84;100.00;99905.63;5030179;28;19928;-84
2023/09/14 10:07:24;;;;;;;;;;;;;;;22.86;100.00;99900.84;5028468;28;19996;-83
2023/09/14 10:09:55;;;;;;;;;;;;;;;22.94;100.00;99894.41;5019443;28;19967;-84
2023/09/14 10:12:24;;;;;;;;;;;;;;;22.96;100.00;99897.72;5032763;28;20356;-83
2023/09/14 10:14:56;;;;;;;;;;;;;;;23.05;100.00;99891.03;5035233;28;19932;-84
2023/09/14 10:17:25;;;;;;;;;;;;;;;23.13;100.00;99888.09;5032679;28;20377;-84
2023/09/14 10:19:51;;;;;;;;;;;;;;;23.23;100.00;99888.44;5036222;28;20378;-84
2023/09/14 10:22:18;;;;;;;;;;;;;;;23.33;100.00;99887.16;5035823;28;19921;-84
2023/09/14 10:24:44;;;;;;;;;;;;;;;23.38;100.00;99879.25;5033567;28;19921;-85
2023/09/14 10:27:10;;;;;;;;;;;;;;;23.44;100.00;99873.00;5033751;28;19925;-85
2023/09/14 10:29:41;;;;;;;;;;;;;;;23.51;100.00;99874.59;5034106;28;19921;-83
2023/09/14 10:32:07;;;;;;;;;;;;;;;23.59;100.00;99876.22;5026251;28;20368;-82
2023/09/14 10:34:33;;;;;;;;;;;;;;;23.68;100.00;99862.25;5031444;28;19976;-82
2023/09/14 10:36:59;;;;;;;;;;;;;;;23.80;100.00;99865.03;5026913;28;20342;-80
2023/09/14 10:39:25;;;;;;;;;;;;;;;23.88;100.00;99854.00;5030821;28;20004;-80
2023/09/14 10:41:51;;;;;;;;;;;;;;;23.97;100.00;99858.06;5030655;28;19933;-80
2023/09/14 10:44:16;;;;;;;;;;;;;;;24.03;100.00;99857.16;5030437;28;19921;-80
2023/09/14 10:46:43;;;;;;;;;;;;;;;24.08;100.00;99857.34;5030879;28;19921;-79
2023/09/14 10:49:09;;;;;;;;;;;;;;;24.18;100.00;99856.84;5030423;28;19980;-80
2023/09/14 10:51:35;;;;;;;;;;;;;;;24.29;100.00;99855.25;5030793;28;19921;-78
2023/09/14 10:54:01;;;;;;;;;;;;;;;24.36;100.00;99850.63;5030057;28;19921;-79
2023/09/14 10:56:33;;;;;;;;;;;;;;;24.38;100.00;99840.44;5031860;28;20289;-79
2023/09/14 10:59:08;;;;;;;;;;;;;;;24.45;100.00;99843.88;5030256;28;19924;-81
2023/09/14 11:01:43;;;;;;;;;;;;;;;24.45;100.00;99838.47;5028561;28;19921;-84
2023/09/14 11:04:15;;;;;;;;;;;;;;;24.50;100.00;99841.34;5026518;28;19999;-80
2023/09/14 11:06:42;;;;;;;;;;;;;;;24.41;100.00;99831.88;5026396;28;19929;-77
2023/09/14 11:09:08;;;;;;;;;;;;;;;24.40;100.00;99835.63;5027691;28;19925;-77
2023/09/14 11:11:37;;;;;;;;;;;;;;;24.40;100.00;99835.63;5010570;28;19921;-77
2023/09/14 11:14:06;;;;;;;;;;;;;;;24.44;100.00;99831.47;5040962;28;19925;-78
2023/09/14 11:16:40;;;;;;;;;;;;;;;24.48;100.00;99832.63;5030827;28;19928;-76
2023/09/14 11:19:06;;;;;;;;;;;;;;;24.51;100.00;99832.19;5031460;28;19921;-79
2023/09/14 11:21:31;;;;;;;;;;;;;;;24.61;100.00;99827.09;5035711;28;19928;-81
2023/09/14 11:23:57;;;;;;;;;;;;;;;24.71;100.00;99832.75;5033587;28;19927;-82
2023/09/14 11:26:29;;;;;;;;;;;;;;;24.77;100.00;99821.06;5031596;28;19944;-79
2023/09/14 11:28:55;;;;;;;;;;;;;;;24.84;100.00;99827.19;5031907;28;19995;-80
2023/09/14 11:31:30;;;;;;;;;;;;;;;24.92;100.00;99817.16;5034045;28;20388;-80
2023/09/14 11:33:56;;;;;;;;;;;;;;;24.93;100.00;99819.59;5033569;28;19921;-80
2023/09/14 11:36:25;;;;;;;;;;;;;;;24.94;100.00;99809.63;5031928;28;20444;-78
2023/09/14 11:38:50;;;;;;;;;;;;;;;24.92;100.00;99807.16;5032692;28;19925;-81
2023/09/14 11:41:34;;;;;;;;;;;;;;;24.91;100.00;99804.72;5031064;28;19921;-80
2023/09/14 11:44:04;;;;;;;;;;;;;;;24.93;100.00;99807.97;5030121;28;19921;-81
2023/09/14 11:46:31;;;;;;;;;;;;;;;25.01;100.00;99800.41;5032868;28;19975;-81
2023/09/14 11:48:57;;;;;;;;;;;;;;;25.18;100.00;99795.97;5033986;28;19921;-81
2023/09/14 11:51:25;;;;;;;;;;;;;;;25.34;100.00;99799.88;5029909;28;19928;-79
2023/09/14 11:53:54;;;;;;;;;;;;;;;25.43;100.00;99798.50;5034961;28;20160;-80
2023/09/14 11:56:20;;;;;;;;;;;;;;;25.51;100.00;99797.31;5029852;28;19972;-80
2023/09/14 11:58:45;;;;;;;;;;;;;;;25.48;100.00;99790.50;5033553;28;20424;-81
2023/09/14 12:01:12;;;;;;;;;;;;;;;25.41;100.00;99787.09;5034257;28;19939;-84
2023/09/14 12:03:38;;;;;;;;;;;;;;;25.37;100.00;99788.63;5029984;28;19960;-79
2023/09/14 12:06:04;;;;;;;;;;;;;;;25.35;100.00;99779.91;5034339;28;19972;-80
2023/09/14 12:08:30;;;;;;;;;;;;;;;25.48;100.00;99782.41;5033640;28;19917;-80
2023/09/14 12:10:59;;;;;;;;;;;;;;;25.75;100.00;99779.25;5015568;28;19955;-82
2023/09/14 12:13:30;;;;;;;;;;;;;;;25.95;100.00;99775.13;5027471;28;21439;-80
2023/09/14 12:16:00;;;;;;;;;;;;;;;25.98;100.00;99773.81;5011474;28;19921;-78
2023/09/14 12:18:39;;;;;;;;;;;;;;;26.21;100.00;99775.69;5035037;28;19921;-80
2023/09/14 12:21:09;;;;;;;;;;;;;;;26.22;100.00;99769.19;5029307;28;19917;-79
2023/09/14 12:23:39;;;;;;;;;;;;;;;26.13;100.00;99766.03;5031762;28;19935;-78
2023/09/14 12:26:06;;;;;;;;;;;;;;;26.08;100.00;99765.94;5031915;28;19921;-79
2023/09/14 12:28:32;;;;;;;;;;;;;;;26.17;100.00;99761.78;5034962;28;19964;-79
2023/09/14 12:30:58;;;;;;;;;;;;;;;26.16;100.00;99762.84;5031712;28;20290;-80
2023/09/14 12:33:24;;;;;;;;;;;;;;;26.17;100.00;99760.97;5032264;28;19921;-80